createdAt,value
2022-10-10T00:00:47.520Z,7.80
2022-10-10T00:03:35.469Z,7.20
2022-10-10T00:06:21.510Z,6.78
2022-10-10T00:09:07.111Z,6.93
2022-10-10T00:11:52.909Z,6.75
2022-10-10T00:14:38.242Z,8.07
2022-10-10T00:17:23.581Z,7.53
2022-10-10T00:20:15.031Z,8.07
2022-10-10T00:23:00.316Z,8.02
2022-10-10T00:25:46.235Z,7.47
2022-10-10T00:28:32.113Z,7.63
2022-10-10T00:31:17.632Z,7.65
2022-10-10T00:34:03.608Z,7.50
2022-10-10T00:36:49.200Z,8.18
2022-10-10T00:39:37.216Z,7.95
2022-10-10T00:42:22.983Z,7.65
2022-10-10T00:45:41.481Z,7.75
2022-10-10T00:48:41.036Z,8.70
2022-10-10T00:51:26.592Z,8.00
2022-10-10T00:54:15.836Z,8.07
2022-10-10T00:57:06.219Z,7.95
2022-10-10T00:59:53.378Z,8.25
2022-10-10T01:02:41.755Z,8.27
2022-10-10T01:05:27.105Z,8.85
2022-10-10T01:08:13.063Z,8.60
2022-10-10T01:11:32.748Z,8.70
2022-10-10T01:14:38.413Z,8.93
2022-10-10T01:20:33.823Z,8.05
2022-10-10T01:23:35.631Z,8.95
2022-10-10T01:26:39.395Z,8.32
2022-10-10T01:29:37.901Z,8.60
2022-10-10T01:32:40.079Z,9.38
2022-10-10T01:35:40.255Z,9.60
2022-10-10T01:38:44.150Z,8.77
2022-10-10T01:41:40.528Z,9.30
2022-10-10T01:44:25.629Z,9.02
2022-10-10T01:47:11.887Z,9.07
2022-10-10T01:50:03.275Z,9.57
2022-10-10T01:53:15.814Z,9.25
2022-10-10T01:56:27.603Z,10.52
2022-10-10T02:00:11.564Z,10.00
2022-10-10T02:03:07.825Z,9.82
2022-10-10T02:05:59.498Z,10.63
2022-10-10T02:09:03.740Z,9.82
2022-10-10T02:11:49.864Z,10.50
2022-10-10T02:14:41.468Z,10.23
2022-10-10T02:17:27.385Z,11.10
2022-10-10T02:20:16.218Z,10.90
2022-10-10T02:23:01.944Z,10.98
2022-10-10T02:25:52.941Z,10.57
2022-10-10T02:28:48.080Z,10.43
2022-10-10T02:31:38.628Z,9.93
2022-10-10T02:34:28.913Z,9.98
2022-10-10T02:37:16.192Z,10.95
2022-10-10T02:40:04.681Z,10.43
2022-10-10T02:42:52.188Z,10.80
2022-10-10T02:45:39.939Z,9.60
2022-10-10T02:48:27.915Z,9.75
2022-10-10T02:51:14.939Z,10.20
2022-10-10T02:54:00.945Z,10.48
2022-10-10T02:56:46.763Z,10.18
2022-10-10T02:59:34.736Z,10.45
2022-10-10T03:02:19.919Z,10.55
2022-10-10T03:05:06.092Z,10.35
2022-10-10T03:07:51.455Z,10.73
2022-10-10T03:10:36.644Z,11.15
2022-10-10T03:13:22.128Z,10.55
2022-10-10T03:16:07.732Z,10.27
2022-10-10T03:18:52.999Z,10.60
2022-10-10T03:21:38.523Z,10.00
2022-10-10T03:24:24.031Z,11.00
2022-10-10T03:27:09.640Z,11.98
2022-10-10T03:29:55.631Z,11.85
2022-10-10T03:32:43.207Z,11.23
2022-10-10T03:35:28.840Z,10.93
2022-10-10T03:38:15.228Z,11.60
2022-10-10T03:41:00.926Z,10.32
2022-10-10T03:43:46.641Z,11.05
2022-10-10T03:46:33.537Z,10.73
2022-10-10T03:49:19.241Z,10.82
2022-10-10T03:52:04.570Z,10.90
2022-10-10T03:54:49.728Z,11.07
2022-10-10T03:57:35.327Z,11.35
2022-10-10T04:00:20.987Z,11.50
2022-10-10T04:03:06.767Z,11.05
2022-10-10T04:05:52.241Z,11.57
2022-10-10T04:08:37.806Z,10.70
2022-10-10T04:11:23.487Z,10.32
2022-10-10T04:14:08.897Z,11.23
2022-10-10T04:16:54.351Z,11.35
2022-10-10T04:19:40.071Z,11.25
2022-10-10T04:22:25.598Z,11.40
2022-10-10T04:25:11.676Z,12.35
2022-10-10T04:28:00.869Z,11.43
2022-10-10T04:30:47.164Z,11.13
2022-10-10T04:33:32.340Z,12.30
2022-10-10T04:36:17.604Z,11.95
2022-10-10T04:39:03.623Z,12.60
2022-10-10T04:41:49.998Z,12.55
2022-10-10T04:44:35.886Z,12.63
2022-10-10T04:47:21.194Z,11.98
2022-10-10T04:50:07.046Z,11.77
2022-10-10T04:52:53.105Z,11.27
2022-10-10T04:55:38.760Z,12.02
2022-10-10T04:58:27.219Z,12.10
2022-10-10T05:01:12.579Z,11.95
2022-10-10T05:04:01.078Z,11.73
2022-10-10T05:06:46.303Z,12.13
2022-10-10T05:09:33.692Z,11.10
2022-10-10T05:12:18.955Z,12.30
2022-10-10T05:15:04.584Z,12.43
2022-10-10T05:17:50.335Z,12.55
2022-10-10T05:20:39.201Z,12.73
2022-10-10T05:23:24.831Z,11.68
2022-10-10T05:26:10.719Z,12.23
2022-10-10T05:28:56.458Z,12.63
2022-10-10T05:31:41.809Z,13.27
2022-10-10T05:34:27.144Z,12.98
2022-10-10T05:37:12.658Z,12.73
2022-10-10T05:39:58.668Z,12.70
2022-10-10T05:42:45.528Z,12.25
2022-10-10T05:45:30.956Z,12.63
2022-10-10T05:48:16.446Z,13.15
2022-10-10T05:51:02.007Z,13.05
2022-10-10T05:53:48.006Z,14.05
2022-10-10T05:56:33.323Z,12.18
2022-10-10T05:59:18.871Z,13.55
2022-10-10T06:02:04.452Z,12.32
2022-10-10T06:04:49.900Z,12.63
2022-10-10T06:07:59.533Z,13.98
2022-10-10T06:10:47.617Z,13.10
2022-10-10T06:13:32.927Z,12.35
2022-10-10T06:16:18.791Z,12.70
2022-10-10T06:19:04.171Z,12.60
2022-10-10T06:21:49.804Z,12.18
2022-10-10T06:24:35.115Z,12.07
2022-10-10T06:27:23.882Z,12.75
2022-10-10T06:30:10.456Z,12.93
2022-10-10T06:32:57.617Z,12.07
2022-10-10T06:35:44.366Z,11.68
2022-10-10T06:38:32.583Z,12.35
2022-10-10T06:41:18.175Z,11.63
2022-10-10T06:44:04.044Z,13.18
2022-10-10T06:46:49.484Z,11.15
2022-10-10T06:49:39.325Z,11.98
2022-10-10T06:52:25.617Z,11.88
2022-10-10T06:55:10.928Z,11.52
2022-10-10T06:57:56.949Z,11.95
2022-10-10T07:00:48.101Z,11.93
2022-10-10T07:03:34.072Z,11.77
2022-10-10T07:06:19.659Z,11.35
2022-10-10T07:09:05.636Z,11.27
2022-10-10T07:11:50.827Z,11.65
2022-10-10T07:14:36.361Z,11.35
2022-10-10T07:17:21.939Z,11.48
2022-10-10T07:20:07.776Z,11.52
2022-10-10T07:23:03.168Z,10.05
2022-10-10T07:25:48.996Z,10.90
2022-10-10T07:28:34.982Z,11.07
2022-10-10T07:31:20.237Z,9.55
2022-10-10T07:34:06.476Z,10.65
2022-10-10T07:36:57.438Z,11.32
2022-10-10T07:39:42.894Z,9.77
2022-10-10T07:42:31.632Z,9.68
2022-10-10T07:45:17.455Z,9.55
2022-10-10T07:48:03.213Z,8.65
2022-10-10T07:50:48.707Z,9.20
2022-10-10T07:53:34.594Z,8.88
2022-10-10T07:56:19.739Z,8.82
2022-10-10T07:59:05.383Z,8.35
2022-10-10T08:01:55.911Z,8.57
2022-10-10T08:04:41.321Z,7.72
2022-10-10T08:07:26.718Z,8.02
2022-10-10T08:10:12.644Z,8.73
2022-10-10T08:12:58.215Z,8.10
2022-10-10T08:15:44.057Z,9.32
2022-10-10T08:18:32.015Z,8.00
2022-10-10T08:21:18.392Z,7.68
2022-10-10T08:24:04.312Z,8.00
2022-10-10T08:26:51.012Z,7.18
2022-10-10T08:29:37.159Z,7.72
2022-10-10T08:32:23.324Z,8.15
2022-10-10T08:35:08.846Z,8.38
2022-10-10T08:37:54.983Z,8.32
2022-10-10T08:40:52.034Z,7.60
2022-10-10T08:43:52.567Z,7.13
2022-10-10T08:46:54.879Z,8.27
2022-10-10T08:50:00.427Z,8.90
2022-10-10T08:52:55.084Z,8.15
2022-10-10T08:55:43.772Z,7.90
2022-10-10T08:58:38.721Z,8.30
2022-10-10T09:01:32.293Z,7.80
2022-10-10T09:04:19.566Z,8.23
2022-10-10T09:07:31.755Z,7.07
2022-10-10T09:10:31.812Z,7.82
2022-10-10T09:13:59.102Z,7.93
2022-10-10T09:16:54.927Z,7.35
2022-10-10T09:20:10.839Z,7.57
2022-10-10T09:23:16.834Z,6.80
2022-10-10T09:26:13.031Z,7.65
2022-10-10T09:29:05.184Z,6.45
2022-10-10T09:31:56.092Z,6.90
2022-10-10T09:34:47.467Z,7.13
2022-10-10T09:37:53.429Z,7.30
2022-10-10T09:40:47.100Z,6.93
2022-10-10T09:43:35.127Z,7.63
2022-10-10T09:46:20.450Z,6.80
2022-10-10T09:49:06.150Z,6.80
2022-10-10T09:51:51.779Z,6.57
2022-10-10T09:54:38.068Z,7.10
2022-10-10T09:57:29.053Z,7.25
2022-10-10T10:00:20.632Z,6.93
2022-10-10T10:03:09.197Z,7.15
2022-10-10T10:05:57.172Z,6.65
2022-10-10T10:08:49.782Z,6.70
2022-10-10T10:11:42.895Z,7.38
2022-10-10T10:14:32.185Z,6.50
2022-10-10T10:17:22.256Z,6.97
2022-10-10T10:20:30.265Z,6.65
2022-10-10T10:23:31.323Z,6.63
2022-10-10T10:26:44.956Z,6.72
2022-10-10T10:29:33.719Z,6.10
2022-10-10T10:32:31.428Z,6.40
2022-10-10T10:35:28.794Z,5.80
2022-10-10T10:38:57.700Z,6.10
2022-10-10T10:42:05.523Z,6.15
2022-10-10T10:45:20.955Z,6.03
2022-10-10T10:48:24.947Z,6.15
2022-10-10T10:51:32.099Z,6.43
2022-10-10T10:54:39.544Z,6.80
2022-10-10T10:58:04.764Z,6.57
2022-10-10T11:01:23.598Z,6.63
2022-10-10T11:05:18.330Z,6.53
2022-10-10T11:08:08.236Z,6.45
2022-10-10T11:10:56.772Z,6.05
2022-10-10T11:14:07.114Z,6.00
2022-10-10T11:17:01.192Z,6.15
2022-10-10T11:20:03.976Z,6.32
2022-10-10T11:23:12.189Z,6.10
2022-10-10T11:26:02.723Z,5.68
2022-10-10T11:28:57.113Z,6.00
2022-10-10T11:32:11.205Z,6.00
2022-10-10T11:35:18.077Z,6.47
2022-10-10T11:38:17.020Z,6.38
2022-10-10T11:41:27.875Z,5.78
2022-10-10T11:44:34.296Z,6.68
2022-10-10T11:47:35.056Z,6.88
2022-10-10T11:50:34.064Z,7.55
2022-10-10T11:53:41.225Z,6.90
2022-10-10T11:56:39.122Z,6.65
2022-10-10T11:59:35.020Z,7.40
2022-10-10T12:02:31.004Z,6.38
2022-10-10T12:05:29.314Z,6.68
2022-10-10T12:09:06.206Z,7.70
2022-10-10T12:12:06.147Z,6.93
2022-10-10T12:14:56.028Z,4.50
2022-10-10T12:17:46.111Z,3.90
2022-10-10T12:20:35.430Z,2.40
2022-10-10T12:23:31.829Z,2.28
2022-10-10T12:26:21.671Z,2.60
2022-10-10T12:29:10.687Z,1.95
2022-10-10T12:32:13.499Z,1.83
2022-10-10T12:35:03.304Z,2.10
2022-10-10T12:38:07.476Z,2.10
2022-10-10T12:41:12.856Z,2.42
2022-10-10T12:44:08.342Z,2.00
2022-10-10T12:47:15.750Z,1.85
2022-10-10T12:50:04.239Z,1.55
2022-10-10T12:53:01.781Z,1.20
2022-10-10T12:55:51.530Z,1.30
2022-10-10T12:58:41.321Z,1.17
2022-10-10T13:01:32.012Z,1.10
2022-10-10T13:04:18.949Z,0.80
2022-10-10T13:07:04.999Z,0.82
2022-10-10T13:09:53.009Z,0.90
2022-10-10T13:12:38.436Z,0.90
2022-10-10T13:15:27.265Z,1.13
2022-10-10T13:18:12.780Z,1.20
2022-10-10T13:20:58.290Z,1.00
2022-10-10T13:26:53.891Z,1.10
2022-10-10T13:29:40.914Z,1.20
2022-10-10T13:32:33.361Z,1.30
2022-10-10T13:35:24.981Z,1.55
2022-10-10T13:38:13.379Z,1.75
2022-10-10T13:40:59.229Z,2.55
2022-10-10T13:43:48.003Z,1.83
2022-10-10T13:46:33.893Z,2.00
2022-10-10T13:49:28.411Z,2.10
2022-10-10T13:52:24.009Z,2.10
2022-10-10T13:55:24.981Z,3.13
2022-10-10T13:58:10.975Z,2.58
2022-10-10T14:01:02.872Z,3.90
2022-10-10T14:03:51.571Z,3.13
2022-10-10T14:06:37.279Z,2.83
2022-10-10T14:09:30.619Z,3.53
2022-10-10T14:12:25.330Z,3.42
2022-10-10T14:15:29.695Z,3.70
2022-10-10T14:18:17.326Z,4.15
2022-10-10T14:21:03.337Z,3.63
2022-10-10T14:23:48.931Z,3.80
2022-10-10T14:26:36.272Z,3.47
2022-10-10T14:29:22.520Z,3.20
2022-10-10T14:32:13.079Z,3.00
2022-10-10T14:34:58.634Z,4.10
2022-10-10T14:37:44.021Z,3.28
2022-10-10T14:40:31.924Z,3.20
2022-10-10T14:43:20.510Z,3.33
2022-10-10T14:46:06.383Z,3.50
2022-10-10T14:48:51.562Z,3.65
2022-10-10T14:51:38.519Z,3.63
2022-10-10T14:54:23.719Z,3.20
2022-10-10T14:57:14.536Z,3.33
2022-10-10T15:00:00.155Z,2.50
2022-10-10T15:02:46.132Z,2.88
2022-10-10T15:05:31.676Z,3.45
2022-10-10T15:08:19.177Z,2.55
2022-10-10T15:11:05.357Z,3.20
2022-10-10T15:13:50.772Z,2.90
2022-10-10T15:16:36.121Z,3.08
2022-10-10T15:19:21.621Z,3.17
2022-10-10T15:22:07.092Z,2.85
2022-10-10T15:24:52.643Z,3.00
2022-10-10T15:27:38.615Z,2.70
2022-10-10T15:30:24.875Z,2.60
2022-10-10T15:33:10.535Z,2.75
2022-10-10T15:36:10.002Z,2.95
2022-10-10T15:38:58.492Z,2.80
2022-10-10T15:41:43.681Z,2.58
2022-10-10T15:44:29.270Z,3.25
2022-10-10T15:47:16.641Z,3.13
2022-10-10T15:50:02.215Z,2.80
2022-10-10T15:52:48.930Z,2.85
2022-10-10T15:55:40.447Z,3.13
2022-10-10T15:58:26.046Z,2.45
2022-10-10T16:01:22.497Z,2.95
2022-10-10T16:04:07.729Z,3.30
2022-10-10T16:07:19.937Z,3.20
2022-10-10T16:10:01.180Z,2.95
2022-10-10T16:12:46.934Z,3.00
2022-10-10T16:15:32.488Z,2.70
2022-10-10T16:18:20.405Z,3.10
2022-10-10T16:21:08.009Z,3.03
2022-10-10T16:23:57.896Z,3.78
2022-10-10T16:26:43.559Z,2.67
2022-10-10T16:29:29.061Z,3.42
2022-10-10T16:32:14.776Z,2.90
2022-10-10T16:34:59.901Z,3.45
2022-10-10T16:37:45.427Z,3.05
2022-10-10T16:40:30.943Z,3.42
2022-10-10T16:43:17.357Z,3.33
2022-10-10T16:46:04.240Z,3.05
2022-10-10T16:48:49.879Z,3.33
2022-10-10T16:51:35.611Z,3.08
2022-10-10T16:54:20.773Z,4.07
2022-10-10T16:57:06.467Z,3.10
2022-10-10T16:59:55.718Z,3.95
2022-10-10T17:02:42.365Z,3.63
2022-10-10T17:05:27.909Z,3.70
2022-10-10T17:08:13.773Z,2.88
2022-10-10T17:11:00.703Z,3.65
2022-10-10T17:13:46.826Z,3.72
2022-10-10T17:19:38.064Z,3.60
2022-10-10T17:22:23.396Z,3.88
2022-10-10T17:25:09.588Z,3.83
2022-10-10T17:27:54.716Z,4.10
2022-10-10T17:30:45.620Z,4.05
2022-10-10T17:33:31.336Z,5.00
2022-10-10T17:36:22.399Z,3.85
2022-10-10T17:39:07.951Z,3.70
2022-10-10T17:41:53.346Z,3.40
2022-10-10T17:44:43.679Z,3.97
2022-10-10T17:47:33.810Z,4.13
2022-10-10T17:50:19.240Z,4.75
2022-10-10T17:53:04.771Z,3.80
2022-10-10T17:55:50.483Z,4.05
2022-10-10T17:58:35.696Z,3.53
2022-10-10T18:01:22.126Z,4.28
2022-10-10T18:04:07.752Z,4.75
2022-10-10T18:06:53.236Z,5.00
2022-10-10T18:09:38.875Z,4.75
2022-10-10T18:12:24.375Z,4.35
2022-10-10T18:15:10.552Z,4.53
2022-10-10T18:17:56.080Z,4.03
2022-10-10T18:20:41.616Z,4.95
2022-10-10T18:23:28.131Z,4.40
2022-10-10T18:26:16.886Z,4.32
2022-10-10T18:29:02.442Z,3.58
2022-10-10T18:31:48.165Z,4.15
2022-10-10T18:34:36.519Z,4.22
2022-10-10T18:37:22.056Z,3.67
2022-10-10T18:40:08.139Z,3.58
2022-10-10T18:42:55.963Z,4.38
2022-10-10T18:45:41.411Z,4.18
2022-10-10T18:48:27.287Z,3.80
2022-10-10T18:51:15.212Z,3.80
2022-10-10T18:54:08.267Z,4.45
2022-10-10T18:56:53.554Z,3.78
2022-10-10T18:59:39.252Z,4.38
2022-10-10T19:02:24.584Z,4.65
2022-10-10T19:05:09.962Z,4.57
2022-10-10T19:07:58.158Z,5.32
2022-10-10T19:10:48.798Z,4.57
2022-10-10T19:13:37.652Z,4.78
2022-10-10T19:16:23.095Z,4.47
2022-10-10T19:19:10.225Z,5.30
2022-10-10T19:21:56.471Z,4.70
2022-10-10T19:24:42.324Z,5.47
2022-10-10T19:27:27.463Z,4.78
2022-10-10T19:30:13.415Z,4.75
2022-10-10T19:32:59.316Z,5.88
2022-10-10T19:35:52.085Z,4.47
2022-10-10T19:38:40.235Z,4.88
2022-10-10T19:41:25.988Z,4.15
2022-10-10T19:44:11.461Z,4.10
2022-10-10T19:46:56.672Z,5.72
2022-10-10T19:49:42.152Z,5.20
2022-10-10T19:52:27.628Z,4.85
2022-10-10T19:55:13.056Z,5.53
2022-10-10T19:57:58.315Z,4.63
2022-10-10T20:00:43.703Z,4.35
2022-10-10T20:03:29.161Z,4.72
2022-10-10T20:06:17.178Z,4.07
2022-10-10T20:09:03.554Z,3.92
2022-10-10T20:11:51.367Z,4.82
2022-10-10T20:14:36.886Z,4.18
2022-10-10T20:17:22.445Z,4.20
2022-10-10T20:20:08.320Z,4.05
2022-10-10T20:22:53.864Z,3.70
2022-10-10T20:25:41.046Z,4.45
2022-10-10T20:28:26.689Z,4.03
2022-10-10T20:31:19.785Z,3.30
2022-10-10T20:34:06.618Z,4.88
2022-10-10T20:36:52.508Z,3.42
2022-10-10T20:39:37.823Z,3.70
2022-10-10T20:42:23.004Z,3.88
2022-10-10T20:45:11.420Z,4.20
2022-10-10T20:47:57.279Z,4.25
2022-10-10T20:50:42.579Z,4.07
2022-10-10T20:53:28.127Z,3.78
2022-10-10T20:56:13.726Z,3.88
2022-10-10T20:58:59.797Z,3.75
2022-10-10T21:01:47.916Z,4.00
2022-10-10T21:04:36.224Z,3.45
2022-10-10T21:07:21.766Z,3.90
2022-10-10T21:10:07.779Z,4.18
2022-10-10T21:12:53.300Z,4.13
2022-10-10T21:15:43.221Z,3.90
2022-10-10T21:18:28.670Z,3.47
2022-10-10T21:21:14.277Z,3.42
2022-10-10T21:24:01.177Z,3.28
2022-10-10T21:26:48.975Z,3.70
2022-10-10T21:29:34.363Z,4.45
2022-10-10T21:32:20.452Z,3.97
2022-10-10T21:35:05.916Z,4.32
2022-10-10T21:37:52.815Z,4.55
2022-10-10T21:40:38.451Z,5.15
2022-10-10T21:43:23.865Z,4.20
2022-10-10T21:46:13.309Z,3.67
2022-10-10T21:49:02.163Z,4.05
2022-10-10T21:51:47.811Z,3.75
2022-10-10T21:54:33.638Z,4.43
2022-10-10T21:57:18.936Z,4.63
2022-10-10T22:00:07.071Z,3.75
2022-10-10T22:02:52.415Z,3.83
2022-10-10T22:05:40.512Z,5.05
2022-10-10T22:08:26.267Z,4.18
2022-10-10T22:11:15.290Z,3.72
2022-10-10T22:14:02.358Z,4.00
2022-10-10T22:16:48.076Z,4.75
2022-10-10T22:19:33.286Z,3.60
2022-10-10T22:22:18.976Z,4.22
2022-10-10T22:25:06.250Z,3.60
2022-10-10T22:27:56.313Z,3.20
2022-10-10T22:30:43.204Z,3.40
2022-10-10T22:33:28.873Z,4.10
2022-10-10T22:36:14.486Z,3.90
2022-10-10T22:39:00.458Z,3.75
2022-10-10T22:41:46.064Z,3.80
2022-10-10T22:44:31.214Z,4.10
2022-10-10T22:47:16.747Z,4.25
2022-10-10T22:50:02.289Z,3.78
2022-10-10T22:52:47.889Z,4.43
2022-10-10T22:55:33.643Z,3.95
2022-10-10T22:58:19.071Z,4.80
2022-10-10T23:01:06.633Z,3.78
2022-10-10T23:04:00.145Z,4.35
2022-10-10T23:06:46.289Z,4.13
2022-10-10T23:09:31.783Z,3.90
2022-10-10T23:12:17.240Z,3.47
2022-10-10T23:15:02.639Z,3.50
2022-10-10T23:17:47.859Z,5.13
2022-10-10T23:20:33.426Z,3.78
2022-10-10T23:23:19.120Z,3.03
2022-10-10T23:26:09.053Z,3.33
2022-10-10T23:28:54.782Z,2.97
2022-10-10T23:31:40.178Z,3.97
2022-10-10T23:34:25.728Z,4.13
2022-10-10T23:37:11.350Z,4.57
2022-10-10T23:39:56.363Z,3.30
2022-10-10T23:42:41.740Z,3.63
2022-10-10T23:45:27.119Z,3.28
2022-10-10T23:48:12.538Z,3.20
2022-10-10T23:50:57.756Z,4.20
2022-10-10T23:53:43.266Z,3.65
2022-10-10T23:56:28.671Z,3.45
2022-10-10T23:59:14.243Z,3.22
